createdAt,value
2023-05-14T00:01:38.150Z,11.18
2023-05-14T00:04:06.694Z,11.50
2023-05-14T00:06:36.074Z,14.40
2023-05-14T00:09:04.455Z,12.38
2023-05-14T00:11:32.569Z,15.05
2023-05-14T00:14:00.544Z,12.82
2023-05-14T00:16:28.559Z,14.35
2023-05-14T00:18:56.680Z,16.17
2023-05-14T00:21:24.656Z,16.67
2023-05-14T00:23:53.989Z,14.45
2023-05-14T00:26:24.008Z,18.25
2023-05-14T00:28:52.044Z,17.00
2023-05-14T00:31:20.219Z,18.65
2023-05-14T00:33:48.227Z,11.85
2023-05-14T00:36:16.324Z,13.20
2023-05-14T00:38:44.241Z,11.82
2023-05-14T00:41:13.942Z,15.57
2023-05-14T00:43:41.888Z,14.10
2023-05-14T00:46:12.512Z,13.93
2023-05-14T00:48:40.536Z,15.23
2023-05-14T00:51:09.818Z,14.70
2023-05-14T00:53:37.997Z,13.55
2023-05-14T00:56:07.173Z,14.43
2023-05-14T00:58:41.812Z,16.45
2023-05-14T01:01:10.345Z,11.32
2023-05-14T01:03:39.097Z,13.35
2023-05-14T01:06:14.301Z,12.98
2023-05-14T01:08:52.262Z,12.20
2023-05-14T01:11:23.773Z,16.35
2023-05-14T01:14:04.804Z,15.13
2023-05-14T01:16:35.513Z,13.85
2023-05-14T01:19:06.871Z,13.15
2023-05-14T01:21:40.497Z,16.33
2023-05-14T01:24:09.423Z,12.52
2023-05-14T01:26:37.917Z,12.95
2023-05-14T01:29:14.972Z,11.93
2023-05-14T01:31:45.801Z,15.80
2023-05-14T01:34:15.763Z,13.52
2023-05-14T01:36:45.911Z,12.35
2023-05-14T01:39:15.970Z,13.00
2023-05-14T01:41:45.234Z,13.18
2023-05-14T01:44:13.911Z,12.93
2023-05-14T01:46:41.994Z,12.52
2023-05-14T01:49:10.376Z,12.43
2023-05-14T01:51:38.435Z,13.13
2023-05-14T01:54:07.729Z,13.73
2023-05-14T01:56:35.792Z,11.32
2023-05-14T01:59:06.548Z,13.13
2023-05-14T02:01:35.330Z,9.98
2023-05-14T02:04:03.849Z,11.93
2023-05-14T02:06:32.339Z,13.18
2023-05-14T02:09:00.362Z,12.38
2023-05-14T02:11:30.069Z,15.27
2023-05-14T02:13:58.143Z,13.85
2023-05-14T02:16:26.295Z,14.15
2023-05-14T02:18:54.307Z,11.18
2023-05-14T02:21:22.360Z,15.05
2023-05-14T02:23:51.197Z,12.20
2023-05-14T02:26:22.402Z,14.85
2023-05-14T02:28:52.016Z,11.20
2023-05-14T02:31:20.151Z,11.40
2023-05-14T02:33:48.118Z,13.57
2023-05-14T02:36:16.124Z,14.55
2023-05-14T02:38:44.320Z,13.75
2023-05-14T02:41:12.217Z,14.10
2023-05-14T02:43:40.115Z,13.02
2023-05-14T02:46:09.551Z,11.73
2023-05-14T02:48:40.966Z,10.82
2023-05-14T02:51:09.442Z,14.95
2023-05-14T02:53:37.387Z,14.05
2023-05-14T02:56:05.877Z,13.85
2023-05-14T02:58:33.933Z,15.23
2023-05-14T03:01:02.013Z,12.50
2023-05-14T03:03:32.229Z,15.00
2023-05-14T03:06:00.872Z,13.65
2023-05-14T03:08:29.035Z,13.57
2023-05-14T03:10:57.120Z,13.07
2023-05-14T03:13:25.192Z,15.13
2023-05-14T03:15:57.072Z,12.85
2023-05-14T03:18:31.309Z,15.57
2023-05-14T03:21:00.771Z,12.30
2023-05-14T03:23:28.746Z,12.60
2023-05-14T03:25:56.794Z,13.45
2023-05-14T03:28:25.240Z,13.27
2023-05-14T03:30:53.297Z,10.68
2023-05-14T03:33:21.379Z,12.63
2023-05-14T03:35:49.407Z,10.70
2023-05-14T03:38:18.745Z,12.50
2023-05-14T03:40:46.784Z,11.27
2023-05-14T03:43:15.286Z,13.48
2023-05-14T03:45:46.440Z,14.77
2023-05-14T03:48:14.500Z,13.68
2023-05-14T03:50:42.801Z,14.48
2023-05-14T03:53:10.780Z,14.10
2023-05-14T03:55:41.012Z,15.95
2023-05-14T03:58:13.844Z,12.07
2023-05-14T04:00:42.462Z,13.02
2023-05-14T04:03:11.270Z,13.80
2023-05-14T04:05:39.450Z,13.85
2023-05-14T04:08:07.462Z,13.55
2023-05-14T04:10:35.767Z,14.00
2023-05-14T04:13:05.398Z,13.02
2023-05-14T04:15:33.586Z,13.65
2023-05-14T04:18:01.565Z,12.27
2023-05-14T04:20:29.577Z,13.73
2023-05-14T04:22:57.630Z,13.82
2023-05-14T04:25:25.519Z,11.90
2023-05-14T04:27:53.500Z,11.15
2023-05-14T04:30:23.204Z,14.65
2023-05-14T04:32:51.951Z,13.82
2023-05-14T04:35:22.645Z,12.77
2023-05-14T04:37:52.180Z,10.88
2023-05-14T04:40:20.212Z,12.80
2023-05-14T04:42:48.282Z,11.90
2023-05-14T04:45:17.583Z,16.25
2023-05-14T04:47:47.534Z,15.25
2023-05-14T04:50:15.619Z,14.65
2023-05-14T04:52:43.640Z,14.27
2023-05-14T04:55:11.570Z,13.82
2023-05-14T04:57:39.536Z,15.55
2023-05-14T05:00:10.200Z,15.75
2023-05-14T05:02:38.482Z,16.30
2023-05-14T05:05:08.841Z,16.33
2023-05-14T05:07:36.915Z,15.73
2023-05-14T05:10:05.041Z,13.02
2023-05-14T05:12:33.005Z,17.02
2023-05-14T05:15:01.071Z,13.13
2023-05-14T05:17:31.986Z,16.60
2023-05-14T05:19:59.982Z,12.30
2023-05-14T05:22:31.559Z,16.65
2023-05-14T05:24:59.884Z,14.25
2023-05-14T05:27:28.387Z,15.50
2023-05-14T05:29:56.365Z,15.65
2023-05-14T05:32:24.719Z,16.85
2023-05-14T05:34:53.329Z,12.75
2023-05-14T05:37:24.534Z,13.82
2023-05-14T05:39:54.079Z,16.58
2023-05-14T05:42:22.543Z,16.27
2023-05-14T05:44:50.592Z,14.07
2023-05-14T05:47:18.626Z,12.77
2023-05-14T05:49:46.566Z,16.27
2023-05-14T05:52:15.043Z,14.73
2023-05-14T05:54:43.074Z,16.10
2023-05-14T05:57:12.516Z,15.82
2023-05-14T05:59:40.522Z,17.08
2023-05-14T06:02:08.630Z,16.27
2023-05-14T06:04:36.657Z,18.13
2023-05-14T06:07:04.877Z,15.20
2023-05-14T06:09:32.833Z,18.88
2023-05-14T06:12:00.892Z,17.63
2023-05-14T06:14:30.566Z,18.25
2023-05-14T06:16:58.740Z,18.23
2023-05-14T06:19:26.773Z,20.38
2023-05-14T06:21:57.598Z,20.90
2023-05-14T06:24:25.617Z,19.85
2023-05-14T06:26:53.813Z,19.67
2023-05-14T06:29:21.819Z,20.70
2023-05-14T06:31:51.255Z,18.67
2023-05-14T06:34:19.651Z,39.15
2023-05-14T06:36:47.537Z,19.50
2023-05-14T06:39:18.273Z,19.38
2023-05-14T06:41:46.276Z,19.95
2023-05-14T06:44:14.267Z,19.25
2023-05-14T06:46:42.164Z,19.52
2023-05-14T06:49:11.822Z,19.05
2023-05-14T06:51:40.821Z,19.17
2023-05-14T06:54:08.758Z,18.17
2023-05-14T06:56:36.719Z,19.20
2023-05-14T06:59:04.703Z,19.35
2023-05-14T07:01:32.716Z,19.25
2023-05-14T07:04:00.971Z,16.20
2023-05-14T07:06:30.866Z,15.52
2023-05-14T07:08:58.865Z,13.00
2023-05-14T07:11:26.819Z,17.05
2023-05-14T07:13:55.127Z,18.98
2023-05-14T07:16:23.075Z,20.55
2023-05-14T07:18:51.153Z,16.23
2023-05-14T07:21:19.480Z,19.80
2023-05-14T07:23:48.875Z,20.02
2023-05-14T07:26:16.775Z,17.30
2023-05-14T07:28:44.784Z,20.23
2023-05-14T07:31:12.734Z,17.70
2023-05-14T07:33:40.792Z,20.15
2023-05-14T07:36:09.220Z,17.63
2023-05-14T07:38:37.310Z,19.25
2023-05-14T07:41:06.875Z,19.98
2023-05-14T07:43:34.868Z,22.02
2023-05-14T07:46:02.814Z,18.60
2023-05-14T07:48:30.781Z,21.15
2023-05-14T07:50:58.729Z,21.92
2023-05-14T07:53:26.914Z,22.05
2023-05-14T07:55:54.911Z,20.67
2023-05-14T07:58:25.167Z,18.50
2023-05-14T08:00:53.378Z,20.15
2023-05-14T08:03:21.439Z,18.48
2023-05-14T08:05:49.526Z,22.15
2023-05-14T08:08:17.520Z,17.85
2023-05-14T08:10:45.959Z,25.60
2023-05-14T08:13:13.979Z,20.58
2023-05-14T08:15:43.307Z,17.48
2023-05-14T08:18:11.258Z,19.55
2023-05-14T08:20:39.276Z,19.50
2023-05-14T08:23:07.448Z,25.48
2023-05-14T08:25:35.510Z,19.00
2023-05-14T08:28:03.437Z,19.08
2023-05-14T08:30:31.493Z,18.00
2023-05-14T08:33:01.001Z,23.00
2023-05-14T08:35:29.147Z,17.98
2023-05-14T08:37:57.495Z,18.27
2023-05-14T08:40:28.143Z,18.35
2023-05-14T08:42:58.287Z,20.90
2023-05-14T08:45:33.981Z,20.73
2023-05-14T08:48:08.842Z,16.48
2023-05-14T08:50:37.506Z,18.83
2023-05-14T08:53:05.634Z,18.67
2023-05-14T08:55:34.315Z,19.52
2023-05-14T08:58:02.573Z,23.55
2023-05-14T09:00:30.927Z,18.23
2023-05-14T09:03:00.557Z,16.90
2023-05-14T09:05:30.036Z,14.57
2023-05-14T09:07:58.314Z,18.70
2023-05-14T09:10:26.522Z,17.38
2023-05-14T09:12:54.899Z,20.40
2023-05-14T09:15:23.849Z,18.98
2023-05-14T09:17:53.219Z,16.45
2023-05-14T09:20:22.725Z,16.23
2023-05-14T09:22:56.701Z,16.67
2023-05-14T09:25:28.592Z,16.52
2023-05-14T09:27:58.997Z,21.27
2023-05-14T09:30:27.454Z,18.77
2023-05-14T09:32:56.377Z,20.08
2023-05-14T09:35:25.872Z,18.50
2023-05-14T09:37:56.127Z,19.92
2023-05-14T09:40:25.410Z,17.25
2023-05-14T09:42:53.631Z,20.65
2023-05-14T09:45:21.551Z,20.90
2023-05-14T09:47:49.654Z,22.75
2023-05-14T09:50:17.678Z,17.60
2023-05-14T09:52:45.805Z,18.60
2023-05-14T09:55:16.132Z,14.85
2023-05-14T09:57:46.608Z,18.08
2023-05-14T10:00:16.155Z,17.33
2023-05-14T10:02:46.648Z,17.30
2023-05-14T10:05:15.926Z,16.60
2023-05-14T10:07:48.087Z,16.90
2023-05-14T10:10:20.730Z,15.10
2023-05-14T10:12:53.478Z,18.20
2023-05-14T10:15:28.309Z,15.73
2023-05-14T10:18:00.326Z,16.92
2023-05-14T10:20:29.753Z,15.95
2023-05-14T10:22:59.463Z,17.35
2023-05-14T10:25:29.226Z,15.38
2023-05-14T10:27:57.932Z,16.35
2023-05-14T10:30:26.293Z,15.48
2023-05-14T10:33:08.386Z,14.43
2023-05-14T10:35:58.504Z,16.15
2023-05-14T10:38:28.552Z,14.27
2023-05-14T10:41:03.955Z,15.45
2023-05-14T10:43:41.196Z,13.02
2023-05-14T10:46:10.756Z,15.25
2023-05-14T10:48:41.459Z,12.60
2023-05-14T10:51:13.198Z,10.85
2023-05-14T10:53:42.896Z,14.25
2023-05-14T10:56:14.064Z,13.80
2023-05-14T10:58:46.511Z,13.80
2023-05-14T11:01:15.106Z,13.57
2023-05-14T11:03:45.058Z,12.15
2023-05-14T11:06:14.583Z,13.57
2023-05-14T11:08:44.008Z,12.68
2023-05-14T11:11:14.023Z,13.10
2023-05-14T11:13:43.137Z,12.95
2023-05-14T11:16:22.594Z,15.15
2023-05-14T11:19:02.057Z,14.07
2023-05-14T11:21:30.945Z,16.33
2023-05-14T11:24:00.903Z,16.65
2023-05-14T11:26:30.785Z,12.73
2023-05-14T11:28:59.408Z,13.00
2023-05-14T11:31:27.858Z,13.32
2023-05-14T11:33:56.336Z,15.30
2023-05-14T11:36:24.400Z,13.25
2023-05-14T11:38:52.728Z,16.98
2023-05-14T11:41:23.191Z,13.63
2023-05-14T11:43:52.942Z,14.68
2023-05-14T11:46:21.878Z,13.13
2023-05-14T11:48:54.462Z,13.82
2023-05-14T11:51:42.609Z,10.55
2023-05-14T11:54:20.261Z,12.85
2023-05-14T11:57:10.628Z,13.38
2023-05-14T12:00:02.562Z,12.73
2023-05-14T12:02:47.396Z,14.43
2023-05-14T12:05:18.951Z,14.30
2023-05-14T12:07:49.759Z,11.80
2023-05-14T12:10:20.225Z,13.00
2023-05-14T12:12:56.660Z,14.65
2023-05-14T12:15:36.757Z,10.13
2023-05-14T12:18:23.506Z,12.07
2023-05-14T12:20:53.222Z,14.18
2023-05-14T12:23:27.535Z,10.07
2023-05-14T12:26:03.658Z,12.35
2023-05-14T12:28:55.076Z,10.52
2023-05-14T12:31:43.098Z,11.82
2023-05-14T12:34:14.279Z,13.68
2023-05-14T12:36:49.572Z,11.80
2023-05-14T12:39:21.910Z,15.48
2023-05-14T12:41:50.343Z,12.50
2023-05-14T12:44:37.728Z,11.73
2023-05-14T12:47:08.141Z,9.80
2023-05-14T12:49:41.001Z,12.85
2023-05-14T12:52:26.040Z,14.25
2023-05-14T12:55:02.875Z,12.60
2023-05-14T12:57:36.567Z,14.27
2023-05-14T13:00:07.331Z,14.18
2023-05-14T13:02:42.373Z,12.18
2023-05-14T13:05:27.899Z,12.10
2023-05-14T13:07:56.100Z,10.88
2023-05-14T13:10:24.845Z,10.90
2023-05-14T13:12:52.979Z,11.77
2023-05-14T13:15:21.052Z,14.27
2023-05-14T13:17:51.294Z,12.57
2023-05-14T13:20:19.301Z,12.95
2023-05-14T13:22:47.511Z,12.43
2023-05-14T13:25:15.936Z,14.00
2023-05-14T13:27:46.969Z,13.15
2023-05-14T13:30:15.268Z,13.70
2023-05-14T13:32:44.711Z,15.85
2023-05-14T13:35:15.000Z,11.48
2023-05-14T13:37:44.751Z,10.52
2023-05-14T13:40:15.043Z,10.05
2023-05-14T13:42:43.004Z,11.88
2023-05-14T13:45:11.886Z,13.30
2023-05-14T13:47:42.631Z,12.88
2023-05-14T13:50:11.306Z,12.63
2023-05-14T13:52:40.873Z,12.27
2023-05-14T13:55:09.747Z,13.60
2023-05-14T13:57:39.793Z,12.02
2023-05-14T14:00:09.614Z,14.93
2023-05-14T14:02:37.972Z,14.57
2023-05-14T14:05:06.841Z,10.90
2023-05-14T14:07:35.122Z,11.68
2023-05-14T14:10:05.016Z,12.88
2023-05-14T14:12:36.206Z,11.50
2023-05-14T14:15:04.638Z,12.30
2023-05-14T14:17:35.303Z,10.80
2023-05-14T14:20:12.832Z,10.38
2023-05-14T14:22:44.393Z,9.93
2023-05-14T14:25:14.251Z,12.68
2023-05-14T14:27:42.903Z,12.32
2023-05-14T14:30:15.797Z,14.68
2023-05-14T14:32:47.398Z,11.77
2023-05-14T14:35:19.671Z,10.95
2023-05-14T14:37:54.380Z,17.13
2023-05-14T14:40:24.190Z,11.90
2023-05-14T14:42:54.604Z,12.25
2023-05-14T14:45:23.031Z,11.45
2023-05-14T14:47:51.892Z,11.73
2023-05-14T14:50:20.003Z,11.80
2023-05-14T14:52:48.154Z,11.80
2023-05-14T14:55:16.228Z,11.00
2023-05-14T14:57:48.157Z,10.73
2023-05-14T15:00:19.820Z,11.93
2023-05-14T15:02:47.907Z,11.15
2023-05-14T15:05:16.135Z,11.77
2023-05-14T15:07:50.001Z,13.07
2023-05-14T15:10:18.010Z,13.57
2023-05-14T15:12:47.437Z,14.20
2023-05-14T15:15:15.395Z,16.95
2023-05-14T15:17:45.974Z,12.57
2023-05-14T15:20:14.437Z,15.82
2023-05-14T15:22:45.357Z,12.02
2023-05-14T15:25:13.584Z,16.70
2023-05-14T15:27:44.454Z,11.93
2023-05-14T15:30:17.149Z,15.18
2023-05-14T15:32:46.467Z,12.25
2023-05-14T15:35:15.026Z,13.00
2023-05-14T15:37:44.692Z,15.68
2023-05-14T15:40:14.855Z,14.93
2023-05-14T15:42:44.177Z,16.50
2023-05-14T15:45:15.137Z,11.57
2023-05-14T15:47:44.248Z,13.13
2023-05-14T15:50:14.290Z,13.15
2023-05-14T15:52:42.719Z,12.27
2023-05-14T15:55:13.460Z,11.88
2023-05-14T15:57:41.745Z,15.27
2023-05-14T16:00:11.346Z,11.25
2023-05-14T16:02:41.485Z,9.20
2023-05-14T16:05:12.498Z,16.17
2023-05-14T16:07:40.807Z,9.05
2023-05-14T16:10:09.827Z,9.70
2023-05-14T16:12:37.894Z,10.45
2023-05-14T16:15:07.187Z,10.05
2023-05-14T16:17:37.258Z,12.15
2023-05-14T16:20:09.776Z,13.35
2023-05-14T16:22:38.067Z,11.38
2023-05-14T16:25:10.614Z,11.50
2023-05-14T16:27:40.642Z,10.63
2023-05-14T16:30:12.870Z,10.88
2023-05-14T16:32:58.884Z,11.38
2023-05-14T16:35:32.291Z,13.70
2023-05-14T16:38:02.837Z,11.73
2023-05-14T16:40:34.973Z,12.43
2023-05-14T16:43:03.094Z,9.98
2023-05-14T16:45:32.723Z,10.75
2023-05-14T16:48:01.441Z,12.68
2023-05-14T16:50:30.989Z,8.23
2023-05-14T16:52:59.059Z,12.55
2023-05-14T16:55:27.255Z,11.73
2023-05-14T16:57:55.532Z,7.95
2023-05-14T17:00:23.724Z,9.32
2023-05-14T17:02:54.301Z,11.77
2023-05-14T17:05:22.865Z,10.43
2023-05-14T17:07:52.457Z,14.07
2023-05-14T17:10:20.490Z,18.33
2023-05-14T17:12:48.383Z,19.30
2023-05-14T17:15:16.457Z,13.73
2023-05-14T17:17:44.361Z,15.13
2023-05-14T17:20:15.925Z,18.23
2023-05-14T17:22:44.803Z,18.65
2023-05-14T17:25:14.221Z,16.02
2023-05-14T17:27:43.445Z,18.77
2023-05-14T17:30:12.108Z,14.48
2023-05-14T17:32:40.327Z,16.35
2023-05-14T17:35:09.760Z,13.98
2023-05-14T17:37:37.943Z,12.95
2023-05-14T17:40:07.182Z,15.32
2023-05-14T17:42:36.498Z,12.82
2023-05-14T17:45:04.614Z,13.57
2023-05-14T17:47:33.679Z,12.73
2023-05-14T17:50:01.960Z,15.48
2023-05-14T17:52:29.829Z,18.52
2023-05-14T17:54:57.744Z,17.25
2023-05-14T17:57:26.188Z,20.67
2023-05-14T17:59:55.465Z,18.45
2023-05-14T18:02:23.633Z,17.10
2023-05-14T18:04:51.555Z,13.65
2023-05-14T18:07:20.817Z,19.20
2023-05-14T18:09:48.689Z,18.23
2023-05-14T18:12:16.619Z,15.65
2023-05-14T18:14:45.673Z,15.10
2023-05-14T18:17:15.244Z,16.27
2023-05-14T18:19:43.166Z,15.43
2023-05-14T18:22:11.075Z,16.48
2023-05-14T18:24:39.343Z,15.05
2023-05-14T18:27:07.580Z,11.85
2023-05-14T18:29:35.876Z,12.90
2023-05-14T18:32:03.769Z,11.50
2023-05-14T18:34:33.055Z,9.38
2023-05-14T18:37:01.135Z,11.77
2023-05-14T18:39:29.205Z,12.80
2023-05-14T18:41:58.012Z,11.40
2023-05-14T18:44:25.911Z,12.77
2023-05-14T18:46:55.779Z,13.95
2023-05-14T18:49:23.963Z,10.10
2023-05-14T18:51:55.152Z,13.25
2023-05-14T18:54:23.084Z,12.00
2023-05-14T18:56:50.983Z,14.32
2023-05-14T18:59:20.246Z,12.82
2023-05-14T19:01:48.900Z,10.75
2023-05-14T19:04:16.915Z,11.68
2023-05-14T19:06:45.090Z,12.63
2023-05-14T19:09:21.039Z,15.25
2023-05-14T19:11:49.024Z,14.23
2023-05-14T19:14:17.351Z,14.07
2023-05-14T19:16:45.498Z,10.63
2023-05-14T19:19:14.089Z,11.32
2023-05-14T19:21:42.358Z,11.40
2023-05-14T19:24:10.621Z,11.48
2023-05-14T19:26:40.995Z,9.63
2023-05-14T19:29:08.850Z,12.07
2023-05-14T19:31:36.760Z,9.15
2023-05-14T19:34:06.497Z,11.68
2023-05-14T19:36:34.420Z,10.95
2023-05-14T19:39:03.198Z,14.32
2023-05-14T19:41:31.128Z,9.40
2023-05-14T19:44:00.894Z,10.82
2023-05-14T19:46:28.905Z,14.57
2023-05-14T19:48:56.837Z,12.15
2023-05-14T19:51:25.353Z,14.95
2023-05-14T19:53:53.664Z,10.40
2023-05-14T19:56:23.201Z,15.77
2023-05-14T19:58:52.219Z,12.43
2023-05-14T20:01:22.120Z,15.20
2023-05-14T20:03:51.617Z,13.45
2023-05-14T20:06:19.582Z,12.90
2023-05-14T20:08:47.486Z,11.15
2023-05-14T20:11:15.853Z,9.38
2023-05-14T20:13:43.896Z,9.20
2023-05-14T20:16:16.853Z,9.70
2023-05-14T20:18:46.522Z,10.55
2023-05-14T20:21:14.789Z,10.88
2023-05-14T20:23:42.792Z,11.05
2023-05-14T20:26:10.912Z,10.57
2023-05-14T20:28:39.164Z,10.65
2023-05-14T20:31:07.265Z,11.50
2023-05-14T20:33:35.242Z,11.20
2023-05-14T20:36:05.394Z,10.68
2023-05-14T20:38:35.201Z,11.52
2023-05-14T20:41:03.752Z,12.65
2023-05-14T20:43:31.964Z,13.80
2023-05-14T20:46:00.611Z,10.38
2023-05-14T20:48:28.837Z,10.50
2023-05-14T20:50:57.054Z,11.15
2023-05-14T20:53:28.345Z,12.18
2023-05-14T20:55:56.368Z,11.57
2023-05-14T20:58:24.314Z,12.85
2023-05-14T21:00:52.474Z,11.27
2023-05-14T21:03:20.822Z,11.57
2023-05-14T21:05:48.775Z,11.40
2023-05-14T21:08:18.059Z,9.40
2023-05-14T21:10:47.725Z,14.30
2023-05-14T21:13:15.768Z,13.60
2023-05-14T21:15:43.958Z,15.50
2023-05-14T21:18:13.556Z,12.63
2023-05-14T21:20:42.150Z,10.07
2023-05-14T21:23:10.554Z,12.63
2023-05-14T21:25:38.833Z,12.00
2023-05-14T21:28:09.496Z,11.75
2023-05-14T21:30:37.415Z,12.25
2023-05-14T21:33:05.826Z,12.73
2023-05-14T21:35:34.309Z,13.68
2023-05-14T21:38:02.411Z,11.93
2023-05-14T21:40:30.804Z,12.43
2023-05-14T21:42:58.823Z,12.05
2023-05-14T21:45:28.703Z,14.20
2023-05-14T21:47:57.048Z,14.20
2023-05-14T21:50:25.120Z,12.70
2023-05-14T21:52:53.041Z,12.10
2023-05-14T21:55:21.048Z,11.70
2023-05-14T21:57:49.436Z,12.13
2023-05-14T22:00:23.306Z,9.82
2023-05-14T22:02:53.547Z,13.77
2023-05-14T22:05:22.261Z,11.88
2023-05-14T22:07:50.488Z,12.02
2023-05-14T22:10:18.825Z,10.77
2023-05-14T22:12:47.497Z,12.63
2023-05-14T22:15:15.707Z,12.95
2023-05-14T22:17:44.050Z,12.25
2023-05-14T22:20:13.934Z,12.40
2023-05-14T22:22:41.841Z,12.52
2023-05-14T22:25:10.790Z,12.13
2023-05-14T22:27:39.117Z,15.55
2023-05-14T22:30:08.561Z,12.63
2023-05-14T22:32:36.548Z,11.27
2023-05-14T22:35:05.205Z,11.10
2023-05-14T22:37:37.149Z,12.40
2023-05-14T22:40:06.222Z,12.70
2023-05-14T22:42:34.388Z,11.63
2023-05-14T22:45:02.280Z,11.20
2023-05-14T22:47:30.275Z,12.48
2023-05-14T22:49:58.364Z,11.40
2023-05-14T22:52:27.027Z,13.88
2023-05-14T22:54:56.427Z,10.88
2023-05-14T22:57:24.489Z,10.23
2023-05-14T22:59:52.704Z,9.93
2023-05-14T23:02:20.850Z,12.40
2023-05-14T23:04:49.013Z,8.88
2023-05-14T23:07:18.029Z,10.82
2023-05-14T23:09:46.223Z,10.27
2023-05-14T23:12:15.570Z,9.52
2023-05-14T23:14:43.674Z,10.68
2023-05-14T23:17:11.802Z,11.15
2023-05-14T23:19:40.086Z,11.98
2023-05-14T23:22:08.302Z,10.93
2023-05-14T23:24:36.342Z,12.93
2023-05-14T23:27:04.708Z,10.98
2023-05-14T23:29:34.101Z,12.93
2023-05-14T23:32:02.162Z,10.65
2023-05-14T23:34:30.273Z,11.60
2023-05-14T23:36:58.350Z,11.07
2023-05-14T23:39:26.390Z,12.57
2023-05-14T23:41:54.422Z,12.30
2023-05-14T23:44:22.653Z,12.20
2023-05-14T23:46:52.282Z,11.98
2023-05-14T23:49:21.005Z,9.25
2023-05-14T23:51:48.884Z,9.35
2023-05-14T23:54:17.469Z,10.98
2023-05-14T23:56:45.552Z,10.13
2023-05-14T23:59:13.813Z,14.40
